Time;durP1;ratioP1;P1;durP2;ratioP2;P2;SDS_P1;SDS_P2;PMS_P1;PMS_P2;Temp;Humidity;BMP_temperature;BMP_pressure;BME280_temperature;BME280_humidity;BME280_pressure;Samples;Min_cycle;Max_cycle;Signal;HPM_P1;HPM_P2
2022/04/23 04:02:15;;;;;;;23.67;17.73;;;7.10;99.90;;;;;;6275132;22;20057;-76
2022/04/23 04:04:42;;;;;;;23.42;17.48;;;6.90;99.90;;;;;;6283271;22;20012;-76
2022/04/23 04:07:08;;;;;;;25.25;18.70;;;6.70;99.90;;;;;;6283245;22;20068;-76
2022/04/23 04:09:34;;;;;;;25.88;18.48;;;6.60;99.90;;;;;;6281232;22;20087;-76
2022/04/23 04:12:02;;;;;;;27.13;19.20;;;6.50;99.90;;;;;;6282769;22;20076;-76
2022/04/23 04:14:28;;;;;;;27.40;19.35;;;6.40;99.90;;;;;;6282030;22;20104;-76
2022/04/23 04:16:54;;;;;;;28.30;20.48;;;6.40;99.90;;;;;;6283096;22;20099;-76
2022/04/23 04:19:20;;;;;;;29.00;20.63;;;6.30;99.90;;;;;;6281025;22;20056;-76
2022/04/23 04:21:47;;;;;;;31.50;22.00;;;6.30;99.90;;;;;;6281447;22;20100;-76
2022/04/23 04:24:13;;;;;;;32.53;22.65;;;6.40;99.90;;;;;;6282950;22;20155;-75
2022/04/23 04:26:43;;;;;;;35.65;23.65;;;6.40;99.90;;;;;;6283156;22;20008;-75
2022/04/23 04:29:10;;;;;;;33.55;22.45;;;6.50;99.90;;;;;;6282925;22;20059;-76
2022/04/23 04:31:49;;;;;;;36.10;25.38;;;6.50;99.90;;;;;;6282972;22;20071;-75
2022/04/23 04:34:23;;;;;;;35.13;23.98;;;6.60;99.90;;;;;;6283219;22;20095;-75
2022/04/23 04:36:51;;;;;;;35.83;25.00;;;6.60;99.90;;;;;;6283319;22;20083;-75
2022/04/23 04:39:17;;;;;;;35.05;24.02;;;6.70;99.90;;;;;;6282912;22;20004;-75
2022/04/23 04:41:44;;;;;;;34.25;24.73;;;6.60;99.90;;;;;;6281401;22;20042;-75
2022/04/23 04:44:10;;;;;;;36.20;24.15;;;6.70;99.90;;;;;;6283070;22;20135;-75
2022/04/23 04:46:36;;;;;;;36.08;23.63;;;6.70;99.90;;;;;;6283183;22;20317;-75
2022/04/23 04:49:06;;;;;;;34.50;23.38;;;6.70;99.90;;;;;;6282816;22;20008;-75
2022/04/23 04:51:32;;;;;;;31.85;22.60;;;6.70;99.90;;;;;;6281031;22;20004;-75
2022/04/23 04:53:58;;;;;;;35.35;23.80;;;6.80;99.90;;;;;;6283117;22;20018;-75
2022/04/23 04:56:24;;;;;;;33.50;23.20;;;6.90;99.90;;;;;;6282825;22;20351;-75
2022/04/23 04:58:49;;;;;;;34.67;23.73;;;7.10;99.90;;;;;;6282642;22;20011;-76
2022/04/23 05:01:16;;;;;;;32.10;23.35;;;7.30;99.90;;;;;;6282555;22;20023;-75
2022/04/23 05:03:43;;;;;;;32.50;23.08;;;7.50;99.90;;;;;;6255511;22;20023;-76
2022/04/23 05:06:09;;;;;;;31.80;22.80;;;7.60;99.90;;;;;;6283613;22;20008;-76
2022/04/23 05:08:35;;;;;;;29.92;21.65;;;7.70;99.90;;;;;;6283142;22;20016;-76
2022/04/23 05:11:02;;;;;;;30.67;22.00;;;7.80;99.90;;;;;;6283396;22;20011;-76
2022/04/23 05:13:27;;;;;;;28.38;20.42;;;7.90;99.90;;;;;;6283722;22;20023;-75
2022/04/23 05:15:53;;;;;;;26.52;20.10;;;8.00;99.90;;;;;;6283262;22;20005;-76
2022/04/23 05:18:18;;;;;;;26.77;20.17;;;8.10;99.90;;;;;;6282880;22;20012;-76
2022/04/23 05:20:44;;;;;;;29.42;20.98;;;8.10;99.90;;;;;;6282998;22;20004;-76
2022/04/23 05:23:10;;;;;;;28.17;21.00;;;8.20;99.90;;;;;;6255415;22;20066;-76
2022/04/23 05:25:35;;;;;;;29.00;21.92;;;8.20;99.90;;;;;;6282842;22;20004;-76
2022/04/23 05:28:01;;;;;;;26.00;20.23;;;8.30;99.90;;;;;;6282426;22;20087;-76
2022/04/23 05:30:26;;;;;;;28.42;20.63;;;8.40;99.90;;;;;;6282180;22;20032;-76
2022/04/23 05:32:52;;;;;;;29.35;21.38;;;8.60;99.90;;;;;;6282746;22;20474;-76
2022/04/23 05:35:18;;;;;;;26.15;19.77;;;8.70;99.90;;;;;;6283298;22;20004;-77
2022/04/23 05:37:43;;;;;;;22.23;17.48;;;8.80;99.90;;;;;;6282823;22;20008;-77
2022/04/23 05:40:09;;;;;;;21.30;17.05;;;9.00;99.90;;;;;;6282517;22;20005;-77
2022/04/23 05:42:35;;;;;;;21.95;16.48;;;9.30;99.90;;;;;;6282676;22;20403;-77
2022/04/23 05:45:00;;;;;;;20.55;16.15;;;9.50;99.90;;;;;;6282845;22;20444;-77
2022/04/23 05:47:26;;;;;;;19.77;15.98;;;9.70;99.90;;;;;;6283371;22;20008;-77
2022/04/23 05:49:51;;;;;;;20.92;16.67;;;9.90;99.90;;;;;;6282551;22;20087;-77
2022/04/23 05:52:17;;;;;;;17.20;14.60;;;10.10;99.90;;;;;;6282572;22;20043;-76
2022/04/23 05:54:42;;;;;;;17.02;14.40;;;10.20;99.90;;;;;;6282694;22;20053;-76
2022/04/23 05:57:08;;;;;;;19.67;15.18;;;10.40;99.90;;;;;;6282971;22;20004;-78
2022/04/23 05:59:33;;;;;;;16.13;13.82;;;10.50;99.90;;;;;;6282497;22;20062;-77
2022/04/23 06:02:00;;;;;;;17.38;14.88;;;10.60;99.90;;;;;;6282224;22;20023;-77
2022/04/23 06:04:26;;;;;;;17.00;14.82;;;10.80;99.90;;;;;;6282395;22;20016;-77
2022/04/23 06:06:52;;;;;;;16.30;14.27;;;11.00;99.90;;;;;;6282807;22;20011;-77
2022/04/23 06:09:17;;;;;;;15.90;13.35;;;11.10;99.90;;;;;;6282114;22;20007;-77
2022/04/23 06:11:43;;;;;;;15.60;13.75;;;11.30;99.90;;;;;;6282163;22;20008;-77
2022/04/23 06:14:09;;;;;;;14.75;12.55;;;11.30;99.90;;;;;;6282423;22;20047;-77
2022/04/23 06:16:36;;;;;;;15.07;12.95;;;11.30;99.90;;;;;;6282393;22;20008;-77
2022/04/23 06:19:02;;;;;;;13.93;12.07;;;11.40;99.90;;;;;;6282303;22;20408;-77
2022/04/23 06:21:27;;;;;;;12.63;11.05;;;11.60;99.90;;;;;;6281979;22;20095;-77
2022/04/23 06:23:53;;;;;;;13.10;11.25;;;11.60;99.90;;;;;;6281655;22;20088;-77
2022/04/23 06:26:18;;;;;;;11.82;10.32;;;11.60;99.90;;;;;;6281217;22;20333;-76
2022/04/23 06:28:44;;;;;;;11.40;9.93;;;11.70;99.90;;;;;;6282339;22;20013;-76
2022/04/23 06:31:09;;;;;;;13.02;11.02;;;11.70;99.90;;;;;;6282356;22;20008;-76
2022/04/23 06:33:35;;;;;;;11.25;9.98;;;11.90;99.90;;;;;;6254860;22;20008;-76
2022/04/23 06:36:00;;;;;;;13.77;10.30;;;11.90;99.90;;;;;;6282419;22;20008;-76
2022/04/23 06:38:26;;;;;;;11.52;10.32;;;12.00;99.90;;;;;;6281969;22;20058;-76
2022/04/23 06:40:51;;;;;;;11.02;9.93;;;12.20;99.90;;;;;;6281527;22;22089;-76
2022/04/23 06:43:17;;;;;;;10.02;9.02;;;12.20;99.90;;;;;;6283554;22;20011;-75
2022/04/23 06:45:43;;;;;;;10.30;9.23;;;12.30;99.90;;;;;;6256945;22;20012;-77
2022/04/23 06:48:08;;;;;;;10.55;9.48;;;12.40;99.90;;;;;;6256231;22;20104;-77
2022/04/23 06:50:35;;;;;;;11.20;9.27;;;12.60;99.90;;;;;;6283194;22;20008;-77
2022/04/23 06:53:01;;;;;;;10.40;9.35;;;12.70;99.90;;;;;;6256187;22;20444;-75
2022/04/23 06:55:27;;;;;;;9.45;8.48;;;12.90;99.90;;;;;;6283590;22;20008;-75
2022/04/23 06:57:53;;;;;;;9.48;8.48;;;13.10;99.90;;;;;;6283464;22;20027;-77
2022/04/23 07:00:22;;;;;;;15.30;8.68;;;13.10;99.90;;;;;;6283009;22;20015;-76
2022/04/23 07:02:48;;;;;;;10.38;8.05;;;13.10;99.90;;;;;;6283570;22;20411;-76
2022/04/23 07:05:13;;;;;;;8.70;7.70;;;13.10;99.90;;;;;;6283548;22;20004;-76
2022/04/23 07:07:39;;;;;;;10.00;8.27;;;13.10;99.90;;;;;;6283518;22;20019;-76
2022/04/23 07:10:05;;;;;;;9.15;8.07;;;13.20;99.90;;;;;;6283132;22;20008;-76
2022/04/23 07:12:31;;;;;;;11.70;8.80;;;13.30;99.90;;;;;;6256112;22;20083;-76
2022/04/23 07:14:56;;;;;;;8.40;7.60;;;13.30;99.90;;;;;;6283483;22;20000;-76
2022/04/23 07:17:26;;;;;;;8.95;8.00;;;13.30;99.90;;;;;;6256255;22;20087;-76
2022/04/23 07:19:53;;;;;;;8.65;7.47;;;13.30;99.90;;;;;;6283402;22;20034;-76
2022/04/23 07:22:20;;;;;;;8.13;7.30;;;13.50;99.90;;;;;;6282930;22;20004;-76
2022/04/23 07:24:47;;;;;;;8.07;7.15;;;13.40;99.90;;;;;;6283557;22;20062;-76
2022/04/23 07:27:13;;;;;;;7.60;6.90;;;13.40;99.90;;;;;;6283561;22;20000;-76
2022/04/23 07:29:39;;;;;;;8.68;7.25;;;13.40;99.90;;;;;;6283520;22;20044;-77
2022/04/23 07:32:05;;;;;;;7.70;6.90;;;13.30;99.90;;;;;;6283217;22;20079;-77
2022/04/23 07:37:31;;;;;;;7.50;6.50;;;13.20;99.90;;;;;;6283679;22;20102;-77
2022/04/23 07:39:58;;;;;;;7.10;5.90;;;13.30;99.90;;;;;;6283299;22;20015;-76
2022/04/23 07:42:24;;;;;;;7.55;6.07;;;13.50;99.90;;;;;;6283099;22;20005;-76
2022/04/23 07:44:50;;;;;;;6.28;5.68;;;13.50;99.90;;;;;;6283608;22;20018;-76
2022/04/23 07:47:15;;;;;;;6.90;6.20;;;13.70;99.90;;;;;;6282756;22;26203;-76
2022/04/23 07:49:41;;;;;;;6.05;5.40;;;13.70;99.90;;;;;;6283178;22;20396;-77
2022/04/23 07:52:07;;;;;;;6.30;5.70;;;13.60;99.90;;;;;;6283325;22;20055;-77
2022/04/23 07:54:32;;;;;;;5.97;5.32;;;13.50;99.90;;;;;;6283268;22;20008;-77
2022/04/23 07:56:58;;;;;;;6.93;5.93;;;13.60;99.90;;;;;;6256203;22;20433;-77
2022/04/23 07:59:24;;;;;;;6.68;5.40;;;13.50;99.90;;;;;;6283011;22;20035;-77
2022/04/23 08:01:50;;;;;;;6.78;5.80;;;13.50;99.90;;;;;;6271412;22;20063;-77
2022/04/23 08:04:15;;;;;;;7.13;5.93;;;13.50;99.90;;;;;;6281639;22;20048;-77
2022/04/23 08:06:41;;;;;;;6.72;6.13;;;13.50;99.90;;;;;;6283522;22;20004;-77
2022/04/23 08:09:06;;;;;;;6.75;6.15;;;13.60;99.90;;;;;;6284142;22;20012;-77
2022/04/23 08:11:32;;;;;;;6.93;6.30;;;13.50;99.90;;;;;;6284163;22;20000;-77
2022/04/23 08:13:57;;;;;;;7.07;6.47;;;13.60;99.90;;;;;;6282713;22;20008;-77
2022/04/23 08:16:26;;;;;;;6.63;6.03;;;13.80;99.90;;;;;;6284640;22;20004;-76
2022/04/23 08:18:52;;;;;;;6.53;5.93;;;13.80;99.90;;;;;;6283954;22;20040;-77
2022/04/23 08:21:18;;;;;;;7.68;7.00;;;13.80;99.90;;;;;;6284322;22;20444;-77
2022/04/23 08:23:43;;;;;;;7.18;6.55;;;13.80;99.90;;;;;;6284842;22;20012;-78
2022/04/23 08:26:09;;;;;;;7.00;6.40;;;13.70;99.90;;;;;;6286801;22;20005;-77
2022/04/23 08:31:18;;;;;;;7.15;6.50;;;13.60;99.90;;;;;;6283523;22;20004;-76
2022/04/23 08:33:59;;;;;;;7.10;6.28;;;13.80;99.90;;;;;;6283409;22;20004;-75
2022/04/23 08:36:36;;;;;;;7.35;6.65;;;13.90;99.90;;;;;;6283310;22;20376;-76
2022/04/23 08:39:04;;;;;;;7.07;6.47;;;14.00;99.70;;;;;;6283340;22;20008;-76
2022/04/23 08:41:31;;;;;;;7.70;6.95;;;14.10;99.80;;;;;;6283106;22;20131;-76
2022/04/23 08:43:57;;;;;;;7.30;6.60;;;14.10;99.90;;;;;;6283708;22;20521;-77
2022/04/23 08:46:25;;;;;;;6.72;6.13;;;14.10;99.90;;;;;;6283554;22;20006;-76
2022/04/23 08:48:56;;;;;;;6.65;5.90;;;14.20;99.50;;;;;;6283361;22;20757;-76
2022/04/23 08:51:23;;;;;;;6.07;5.57;;;14.20;99.20;;;;;;6283460;22;20004;-77
2022/04/23 08:53:54;;;;;;;5.65;5.13;;;14.40;99.90;;;;;;6283595;22;20079;-76
2022/04/23 08:56:19;;;;;;;5.65;5.07;;;14.80;99.00;;;;;;6283630;22;20004;-76
2022/04/23 08:58:46;;;;;;;5.70;5.20;;;15.10;97.60;;;;;;6283311;22;20012;-76
2022/04/23 09:01:12;;;;;;;5.72;5.20;;;15.30;97.30;;;;;;6282912;22;20126;-76
2022/04/23 09:03:37;;;;;;;4.88;4.47;;;15.30;97.60;;;;;;6283266;22;20240;-76
2022/04/23 09:06:03;;;;;;;6.53;5.07;;;15.10;96.30;;;;;;6282508;22;20004;-76
2022/04/23 09:08:29;;;;;;;5.95;5.00;;;15.10;97.30;;;;;;6283220;22;20094;-76
2022/04/23 09:10:55;;;;;;;5.43;4.72;;;15.10;96.90;;;;;;6283043;22;20299;-76
2022/04/23 09:13:31;;;;;;;5.70;5.20;;;15.20;96.20;;;;;;6283143;22;20011;-77
2022/04/23 09:24:21;;;;;;;5.40;4.90;;;14.50;96.80;;;;;;6283320;22;20361;-77
2022/04/23 09:27:06;;;;;;;5.57;5.00;;;14.50;97.10;;;;;;6283599;22;20004;-77
2022/04/23 09:29:35;;;;;;;5.53;5.03;;;14.50;96.90;;;;;;6283055;22;20016;-78
2022/04/23 09:32:12;;;;;;;5.13;4.63;;;14.50;97.10;;;;;;6282469;22;20079;-76
2022/04/23 09:34:41;;;;;;;5.35;4.68;;;14.50;97.00;;;;;;6255610;22;20012;-76
2022/04/23 09:37:08;;;;;;;5.68;4.72;;;14.60;97.10;;;;;;6283230;22;20027;-76
2022/04/23 09:39:35;;;;;;;4.97;4.47;;;15.00;96.70;;;;;;6282578;22;20015;-78
2022/04/23 09:42:17;;;;;;;5.72;5.10;;;15.10;96.20;;;;;;6282966;22;20005;-76
2022/04/23 09:44:47;;;;;;;5.40;4.50;;;15.20;96.40;;;;;;6283102;22;20486;-78
2022/04/23 09:47:31;;;;;;;5.30;4.72;;;15.20;95.60;;;;;;6255500;22;20004;-78
2022/04/23 09:49:57;;;;;;;5.57;4.78;;;15.10;95.30;;;;;;6282567;22;20023;-77
2022/04/23 09:52:30;;;;;;;4.93;4.53;;;15.10;95.50;;;;;;6282738;22;20008;-78
2022/04/23 09:54:59;;;;;;;4.82;4.32;;;15.00;95.60;;;;;;6282791;22;20423;-77
2022/04/23 09:57:25;;;;;;;5.10;4.60;;;15.20;95.60;;;;;;6282810;22;20000;-77
2022/04/23 09:59:52;;;;;;;4.78;4.38;;;15.00;95.60;;;;;;6282472;22;20138;-77
2022/04/23 10:02:21;;;;;;;5.50;4.68;;;15.10;95.90;;;;;;6281697;22;20431;-77
2022/04/23 10:04:47;;;;;;;5.40;4.90;;;15.20;95.30;;;;;;6254713;22;20549;-76
2022/04/23 10:07:17;;;;;;;4.97;4.50;;;15.00;95.80;;;;;;6282668;22;20008;-76
2022/04/23 10:09:46;;;;;;;6.25;4.45;;;15.00;95.80;;;;;;6282516;22;20019;-76
2022/04/23 10:12:19;;;;;;;4.72;4.30;;;15.20;94.90;;;;;;6282418;22;20004;-76
2022/04/23 10:14:56;;;;;;;5.57;5.00;;;15.30;95.50;;;;;;6285270;22;20079;-77
2022/04/23 10:17:24;;;;;;;7.32;4.60;;;15.20;95.00;;;;;;6260533;22;20801;-77
2022/04/23 10:19:50;;;;;;;5.28;4.60;;;15.40;95.30;;;;;;6284449;22;20015;-78
2022/04/23 10:22:53;;;;;;;5.00;4.50;;;15.40;94.80;;;;;;6256356;22;20011;-78
2022/04/23 10:25:29;;;;;;;5.50;4.97;;;15.50;94.70;;;;;;6256795;22;20016;-78
2022/04/23 10:27:57;;;;;;;5.57;5.07;;;15.40;94.80;;;;;;6283990;22;20526;-78
2022/04/23 10:30:25;;;;;;;6.15;5.15;;;15.40;95.00;;;;;;6283847;22;20023;-78
2022/04/23 10:32:50;;;;;;;5.80;5.15;;;15.40;94.70;;;;;;6284252;22;20000;-77
2022/04/23 10:35:19;;;;;;;6.22;5.40;;;15.20;94.40;;;;;;6284796;22;20080;-77
2022/04/23 10:37:49;;;;;;;6.30;5.70;;;15.10;95.40;;;;;;6285321;22;20446;-77
2022/04/23 10:40:17;;;;;;;6.78;5.53;;;14.90;94.80;;;;;;6284154;22;20974;-77
2022/04/23 10:43:06;;;;;;;7.20;6.13;;;14.90;94.80;;;;;;6256845;22;20008;-77
2022/04/23 10:45:33;;;;;;;7.88;6.20;;;15.00;94.90;;;;;;6284844;22;20004;-77
2022/04/23 10:48:24;;;;;;;9.52;5.88;;;15.10;94.80;;;;;;6283429;22;20004;-77
2022/04/23 10:51:04;;;;;;;7.28;6.18;;;15.10;94.80;;;;;;6274299;22;20471;-77
2022/04/23 10:53:38;;;;;;;7.30;5.63;;;14.90;94.60;;;;;;6256481;22;20008;-77
2022/04/23 10:56:11;;;;;;;7.95;5.50;;;15.10;95.20;;;;;;6283650;22;20031;-78
2022/04/23 10:58:42;;;;;;;8.70;6.50;;;15.20;94.90;;;;;;6255716;22;20011;-78
2022/04/23 11:01:25;;;;;;;6.30;5.28;;;15.40;95.00;;;;;;6282696;22;20019;-77
2022/04/23 11:04:11;;;;;;;8.32;6.45;;;15.40;94.10;;;;;;6256134;22;20456;-77
2022/04/23 11:12:33;;;;;;;6.97;6.18;;;15.70;93.50;;;;;;6283566;22;20008;-78
2022/04/23 11:15:00;;;;;;;9.15;5.72;;;15.90;93.70;;;;;;6283832;22;20001;-78
2022/04/23 11:17:32;;;;;;;6.47;5.53;;;15.80;94.10;;;;;;6283666;22;20029;-77
2022/04/23 11:19:59;;;;;;;6.57;5.88;;;16.00;93.50;;;;;;6283795;22;20011;-77
2022/04/23 11:22:26;;;;;;;8.60;5.97;;;15.80;93.00;;;;;;6255929;22;20075;-77
2022/04/23 11:24:53;;;;;;;8.73;6.05;;;16.00;92.80;;;;;;6283541;22;20087;-78
2022/04/23 11:27:32;;;;;;;8.10;6.10;;;16.30;92.70;;;;;;6256831;22;20031;-77
2022/04/23 11:29:58;;;;;;;7.45;6.03;;;16.30;92.20;;;;;;6285204;22;20064;-78
2022/04/23 11:32:30;;;;;;;7.30;6.55;;;16.40;92.60;;;;;;6283315;22;20087;-78
2022/04/23 11:35:04;;;;;;;9.43;6.25;;;16.40;92.10;;;;;;6283573;22;20035;-78
2022/04/23 11:37:40;;;;;;;10.32;6.50;;;16.60;92.70;;;;;;6283780;22;20083;-78
2022/04/23 11:40:10;;;;;;;8.38;6.07;;;16.90;91.60;;;;;;6283427;22;20015;-78
2022/04/23 11:42:44;;;;;;;7.85;6.60;;;17.00;92.70;;;;;;6283397;22;20004;-78
2022/04/23 11:45:11;;;;;;;6.80;5.88;;;16.90;91.10;;;;;;6283846;22;20004;-78
2022/04/23 11:47:37;;;;;;;9.10;6.10;;;16.80;92.20;;;;;;6283425;22;20027;-78
2022/04/23 11:50:16;;;;;;;7.65;5.85;;;17.20;91.60;;;;;;6283309;22;20008;-78
2022/04/23 11:52:43;;;;;;;6.28;5.68;;;17.30;90.60;;;;;;6283876;22;20008;-78
2022/04/23 11:55:24;;;;;;;6.93;5.80;;;17.20;90.70;;;;;;6257271;22;20064;-78
2022/04/23 11:57:56;;;;;;;6.88;5.72;;;16.90;90.70;;;;;;6284734;22;20000;-77
2022/04/23 12:00:22;;;;;;;7.13;5.68;;;16.70;91.10;;;;;;6284977;22;20032;-78
2022/04/23 12:02:49;;;;;;;8.40;6.78;;;16.60;91.00;;;;;;6283558;22;20455;-77
2022/04/23 12:05:25;;;;;;;9.50;6.60;;;16.80;91.20;;;;;;6284578;22;20321;-77
2022/04/23 12:07:51;;;;;;;6.50;5.25;;;16.50;91.50;;;;;;6285574;22;20000;-78
2022/04/23 12:10:23;;;;;;;9.77;6.40;;;16.40;91.20;;;;;;6283287;22;20008;-77
2022/04/23 12:12:50;;;;;;;9.10;5.63;;;16.50;91.50;;;;;;6256225;22;20594;-77
2022/04/23 12:15:15;;;;;;;7.28;5.90;;;16.50;91.80;;;;;;6283411;22;20008;-77
2022/04/23 12:17:49;;;;;;;8.48;6.35;;;16.50;91.90;;;;;;6283286;22;20007;-78
2022/04/23 12:20:25;;;;;;;6.85;6.15;;;16.80;91.70;;;;;;6282912;22;20004;-78
2022/04/23 12:23:00;;;;;;;6.70;6.00;;;16.60;91.80;;;;;;6256243;22;20020;-78
2022/04/23 12:25:27;;;;;;;9.35;6.85;;;16.80;91.30;;;;;;6283413;22;20039;-78
2022/04/23 12:42:11;;;;;;;9.20;6.70;;;17.40;90.90;;;;;;6282765;22;20009;-77
2022/04/23 12:44:41;;;;;;;7.95;6.22;;;17.60;88.50;;;;;;6282893;22;20441;-76
2022/04/23 12:47:08;;;;;;;7.22;6.53;;;17.70;89.20;;;;;;6282931;22;20020;-76
2022/04/23 12:49:47;;;;;;;8.18;6.82;;;17.80;89.20;;;;;;6282644;22;20008;-76
2022/04/23 12:52:24;;;;;;;7.00;6.28;;;17.60;88.60;;;;;;6282858;22;20079;-76
2022/04/23 12:55:10;;;;;;;6.70;6.00;;;17.60;89.40;;;;;;6283178;22;20751;-76
2022/04/23 12:57:35;;;;;;;7.75;6.38;;;18.00;88.50;;;;;;6283236;22;20004;-78
2022/04/23 13:00:01;;;;;;;8.55;6.57;;;18.30;87.70;;;;;;6255517;22;20015;-77
2022/04/23 13:02:37;;;;;;;7.93;6.10;;;18.20;85.80;;;;;;6283068;22;20012;-77
2022/04/23 13:05:03;;;;;;;7.50;6.70;;;18.60;86.40;;;;;;6284986;22;20012;-77
2022/04/23 13:10:13;;;;;;;7.97;6.15;;;18.20;87.90;;;;;;6283301;22;20019;-77
2022/04/23 13:12:39;;;;;;;8.60;6.70;;;18.30;86.60;;;;;;6283223;22;20341;-77
2022/04/23 13:15:05;;;;;;;10.10;6.40;;;18.90;87.40;;;;;;6283185;22;20095;-77
2022/04/23 13:17:30;;;;;;;7.47;6.20;;;19.00;85.00;;;;;;6283909;22;20012;-76
2022/04/23 13:19:56;;;;;;;7.22;6.43;;;19.20;83.60;;;;;;6284843;22;20008;-77
2022/04/23 13:22:21;;;;;;;7.82;6.60;;;19.60;84.20;;;;;;6284261;22;20004;-77
2022/04/23 13:24:48;;;;;;;9.45;6.40;;;19.50;80.20;;;;;;6284605;22;23582;-77
2022/04/23 13:27:14;;;;;;;7.53;6.72;;;19.10;83.90;;;;;;6255458;22;20010;-77
2022/04/23 13:29:39;;;;;;;7.22;6.40;;;19.10;82.80;;;;;;6255238;22;20471;-78
2022/04/23 13:32:05;;;;;;;8.05;7.03;;;19.40;81.40;;;;;;6282385;22;20016;-77
2022/04/23 13:34:31;;;;;;;8.55;7.65;;;19.20;82.00;;;;;;6282977;22;20078;-77
2022/04/23 13:36:56;;;;;;;8.02;6.78;;;19.10;83.30;;;;;;6255733;22;20018;-77
2022/04/23 13:39:22;;;;;;;9.20;6.93;;;19.00;83.20;;;;;;6282344;22;20392;-77
2022/04/23 13:41:49;;;;;;;9.80;7.15;;;19.00;84.70;;;;;;6282205;22;20432;-77
2022/04/23 13:44:15;;;;;;;8.75;7.05;;;19.10;82.40;;;;;;6282656;22;20016;-77
2022/04/23 13:46:40;;;;;;;8.70;6.80;;;18.90;82.70;;;;;;6283870;22;20000;-78
2022/04/23 13:49:06;;;;;;;6.78;6.13;;;18.90;83.80;;;;;;6282404;22;20001;-75
2022/04/23 13:51:32;;;;;;;9.10;6.95;;;18.80;83.10;;;;;;6284626;22;20000;-76
2022/04/23 13:53:57;;;;;;;8.15;6.85;;;18.90;82.70;;;;;;6286160;22;20722;-77
2022/04/23 13:56:23;;;;;;;9.38;7.00;;;19.10;81.10;;;;;;6286197;22;20063;-76
2022/04/23 13:58:48;;;;;;;7.53;6.80;;;18.80;82.20;;;;;;6285386;22;20344;-76
2022/04/23 14:01:14;;;;;;;9.20;6.65;;;18.60;82.80;;;;;;6285646;22;20012;-76
2022/04/23 14:10:04;;;;;;;9.50;6.97;;;18.60;84.20;;;;;;6285989;22;20346;-76
2022/04/23 14:12:11;;;;;;;10.15;7.63;;;18.70;82.30;;;;;;6285360;22;20008;-76
2022/04/23 14:14:36;;;;;;;10.32;8.77;;;18.30;83.80;;;;;;6285963;22;20012;-76
2022/04/23 14:17:02;;;;;;;9.50;8.32;;;18.30;83.90;;;;;;6285891;22;20071;-76
2022/04/23 14:19:28;;;;;;;11.48;9.50;;;18.20;83.60;;;;;;6258296;22;20020;-76
2022/04/23 14:21:53;;;;;;;13.43;11.95;;;18.50;84.20;;;;;;6285777;22;20055;-76
2022/04/23 14:24:19;;;;;;;16.58;12.95;;;17.90;86.70;;;;;;6258284;22;20322;-76
2022/04/23 14:26:44;;;;;;;15.77;12.50;;;17.80;87.90;;;;;;6285899;22;20015;-76
2022/04/23 14:29:10;;;;;;;18.00;13.80;;;17.80;88.00;;;;;;6284850;22;22452;-76
2022/04/23 14:31:35;;;;;;;18.63;13.40;;;17.70;88.20;;;;;;6285478;22;20004;-76
2022/04/23 14:34:01;;;;;;;18.48;13.63;;;17.60;87.20;;;;;;6258096;22;20016;-76
2022/04/23 14:36:26;;;;;;;16.92;13.13;;;17.90;87.10;;;;;;6285745;22;20440;-76
2022/04/23 14:38:53;;;;;;;17.25;12.82;;;17.90;89.30;;;;;;6285347;22;20344;-76
2022/04/23 14:41:19;;;;;;;18.60;13.57;;;17.70;87.20;;;;;;6285461;22;20000;-76
2022/04/23 14:43:44;;;;;;;23.33;14.77;;;17.60;87.40;;;;;;6285391;22;20091;-76
2022/04/23 14:46:10;;;;;;;16.90;13.95;;;17.50;88.80;;;;;;6285595;22;20027;-76
2022/04/23 14:48:36;;;;;;;18.05;14.68;;;17.50;88.80;;;;;;6285171;22;20059;-76
2022/04/23 14:53:54;;;;;;;17.25;13.70;;;17.50;89.20;;;;;;6237113;22;20016;-76
2022/04/23 14:56:20;;;;;;;18.80;13.73;;;17.30;89.70;;;;;;6285546;22;20004;-76
2022/04/23 14:58:47;;;;;;;17.08;14.25;;;17.00;89.90;;;;;;6285095;22;20023;-76
2022/04/23 15:01:13;;;;;;;19.20;15.43;;;16.80;90.80;;;;;;6285180;22;20033;-76
2022/04/23 15:03:42;;;;;;;19.23;14.65;;;16.60;90.70;;;;;;6284260;22;20070;-77
2022/04/23 15:06:08;;;;;;;18.42;15.23;;;16.40;91.00;;;;;;6283625;22;20092;-77
2022/04/23 15:08:34;;;;;;;19.77;15.40;;;16.30;91.40;;;;;;6283538;22;20013;-77
2022/04/23 15:10:59;;;;;;;17.15;14.02;;;16.30;91.40;;;;;;6283241;22;20075;-77
2022/04/23 15:13:27;;;;;;;18.88;14.48;;;16.20;91.80;;;;;;6283315;22;20527;-78
2022/04/23 15:15:53;;;;;;;17.48;13.80;;;16.30;91.70;;;;;;6283692;22;20757;-77
2022/04/23 15:18:19;;;;;;;18.30;14.98;;;16.30;91.20;;;;;;6255954;22;20018;-76
2022/04/23 15:20:44;;;;;;;19.02;14.25;;;16.20;91.90;;;;;;6282535;22;23044;-76
2022/04/23 15:23:10;;;;;;;18.92;14.57;;;16.20;91.70;;;;;;6282607;22;26590;-76
2022/04/23 15:25:36;;;;;;;19.02;13.82;;;16.10;91.80;;;;;;6283375;22;20008;-77
2022/04/23 15:28:02;;;;;;;19.02;14.50;;;16.00;92.20;;;;;;6283196;22;20007;-77
2022/04/23 15:30:28;;;;;;;18.98;13.57;;;15.90;92.60;;;;;;6283371;22;20317;-78
2022/04/23 15:32:56;;;;;;;17.83;14.30;;;15.80;92.30;;;;;;6282892;22;20023;-78
2022/04/23 15:35:23;;;;;;;18.67;14.48;;;15.80;92.40;;;;;;6283441;22;20008;-78
2022/04/23 15:37:49;;;;;;;20.13;14.15;;;15.90;92.60;;;;;;6257877;22;20012;-78
2022/04/23 15:40:15;;;;;;;17.95;14.13;;;15.90;93.20;;;;;;6286948;22;20004;-78
2022/04/23 15:42:41;;;;;;;17.77;13.93;;;15.80;93.20;;;;;;6287625;22;20020;-78
2022/04/23 15:45:08;;;;;;;18.25;14.15;;;15.80;93.00;;;;;;6287667;22;20012;-78
2022/04/23 15:47:34;;;;;;;15.25;12.82;;;15.70;92.90;;;;;;6287291;22;20012;-78
2022/04/23 15:50:01;;;;;;;20.45;14.05;;;15.60;92.90;;;;;;6260276;22;20870;-78
2022/04/23 15:52:26;;;;;;;16.63;13.25;;;15.60;93.30;;;;;;6283631;22;20016;-77
2022/04/23 15:54:52;;;;;;;17.02;13.13;;;15.50;92.90;;;;;;6283611;22;20012;-78
2022/04/23 15:57:17;;;;;;;15.43;12.55;;;15.70;93.10;;;;;;6256141;22;20432;-78
2022/04/23 15:59:43;;;;;;;15.95;12.88;;;15.80;92.90;;;;;;6255974;22;20340;-78
2022/04/23 16:02:08;;;;;;;16.98;13.25;;;15.90;92.60;;;;;;6268830;22;20017;-78
2022/04/23 16:04:35;;;;;;;16.02;12.88;;;15.80;92.50;;;;;;6282120;22;20008;-78
2022/04/23 16:07:02;;;;;;;17.17;13.10;;;15.70;93.00;;;;;;6284177;22;20693;-79
2022/04/23 16:09:28;;;;;;;14.65;12.38;;;15.90;92.70;;;;;;6283784;22;20004;-78
2022/04/23 16:11:54;;;;;;;16.67;12.75;;;16.00;92.20;;;;;;6284700;22;20008;-78
2022/04/23 16:14:20;;;;;;;14.90;12.15;;;16.00;92.20;;;;;;6285568;22;20012;-78
2022/04/23 16:16:45;;;;;;;14.57;12.27;;;16.10;92.50;;;;;;6285028;22;20028;-78
2022/04/23 16:19:11;;;;;;;16.40;12.77;;;16.10;92.90;;;;;;6288917;22;20079;-78
2022/04/23 16:21:37;;;;;;;13.52;11.82;;;16.20;92.70;;;;;;6284440;22;20015;-78
2022/04/23 16:24:03;;;;;;;14.27;11.23;;;16.20;92.50;;;;;;6281925;22;20508;-78
2022/04/23 16:26:28;;;;;;;16.38;11.77;;;16.30;92.20;;;;;;6283823;22;19996;-78
2022/04/23 16:28:55;;;;;;;14.45;11.95;;;16.30;92.30;;;;;;6283611;22;20004;-77
2022/04/23 16:31:24;;;;;;;15.27;11.48;;;16.30;92.10;;;;;;6283402;22;20467;-78
2022/04/23 16:33:51;;;;;;;13.20;11.02;;;16.30;92.10;;;;;;6283524;22;20395;-78
2022/04/23 16:47:18;;;;;;;15.43;12.05;;;16.00;92.20;;;;;;6283619;22;20091;-78
2022/04/23 16:49:44;;;;;;;15.38;12.05;;;15.90;92.40;;;;;;6281537;22;20044;-78
2022/04/23 16:52:10;;;;;;;13.43;11.25;;;15.80;93.10;;;;;;6283430;22;20457;-77
2022/04/23 16:54:35;;;;;;;16.10;12.18;;;15.80;93.30;;;;;;6286357;22;20356;-77
2022/04/23 16:57:01;;;;;;;17.27;12.02;;;15.70;93.10;;;;;;6283540;22;20012;-78
2022/04/23 16:59:27;;;;;;;17.02;12.13;;;15.70;93.30;;;;;;6283471;22;20012;-78
2022/04/23 17:01:53;;;;;;;15.02;12.00;;;15.60;93.00;;;;;;6283885;22;20448;-77
2022/04/23 17:04:18;;;;;;;15.85;12.07;;;15.70;93.00;;;;;;6284948;22;20088;-78
2022/04/23 17:06:44;;;;;;;16.77;12.68;;;15.70;93.30;;;;;;6284765;22;20012;-76
2022/04/23 17:09:09;;;;;;;19.27;12.80;;;15.80;93.20;;;;;;6285187;22;20058;-78
2022/04/23 17:11:35;;;;;;;15.02;12.07;;;15.80;93.30;;;;;;6257686;22;20436;-78
2022/04/23 17:14:00;;;;;;;17.42;12.15;;;15.70;93.10;;;;;;6285605;22;20420;-76
2022/04/23 17:16:26;;;;;;;18.45;14.55;;;15.70;93.40;;;;;;6284722;22;20681;-76
2022/04/23 17:18:53;;;;;;;20.23;16.23;;;15.70;93.40;;;;;;6284434;22;20012;-77
2022/04/23 17:21:19;;;;;;;139.23;121.85;;;15.70;93.40;;;;;;6285055;22;20008;-77
2022/04/23 17:23:44;;;;;;;23.77;21.20;;;15.70;93.70;;;;;;6284487;22;20004;-78
2022/04/23 17:26:11;;;;;;;17.15;13.82;;;15.80;93.50;;;;;;6284232;22;20004;-78
2022/04/23 17:28:38;;;;;;;16.55;13.40;;;15.80;93.60;;;;;;6284998;22;20333;-77
2022/04/23 17:31:03;;;;;;;18.13;13.65;;;15.70;93.40;;;;;;6284918;22;20008;-78
2022/04/23 17:33:29;;;;;;;46.50;30.05;;;15.60;93.40;;;;;;6286021;22;20008;-78
2022/04/23 17:35:55;;;;;;;33.75;27.65;;;15.50;93.70;;;;;;6287325;22;19996;-78
2022/04/23 17:41:05;;;;;;;206.20;126.07;;;15.50;93.70;;;;;;6286388;22;20842;-77